sensor_id;sensor_type;location;lat;lon;timestamp;P1;durP1;ratioP1;P2;durP2;ratioP2
75593;SDS011;64176;49.156;7.810;2022-12-19T00:01:09;40.35;;;21.60;;
75593;SDS011;64176;49.156;7.810;2022-12-19T00:04:03;47.63;;;22.25;;
75593;SDS011;64176;49.156;7.810;2022-12-19T00:06:55;40.92;;;21.33;;
75593;SDS011;64176;49.156;7.810;2022-12-19T00:09:41;38.95;;;22.90;;
75593;SDS011;64176;49.156;7.810;2022-12-19T00:12:28;38.25;;;21.30;;
75593;SDS011;64176;49.156;7.810;2022-12-19T00:15:11;43.00;;;20.40;;
75593;SDS011;64176;49.156;7.810;2022-12-19T00:17:55;49.75;;;24.50;;
75593;SDS011;64176;49.156;7.810;2022-12-19T00:20:42;44.83;;;22.75;;
75593;SDS011;64176;49.156;7.810;2022-12-19T00:23:26;39.58;;;21.77;;
75593;SDS011;64176;49.156;7.810;2022-12-19T00:26:16;41.85;;;22.50;;
75593;SDS011;64176;49.156;7.810;2022-12-19T00:29:05;46.03;;;21.95;;
75593;SDS011;64176;49.156;7.810;2022-12-19T00:31:53;47.42;;;25.02;;
75593;SDS011;64176;49.156;7.810;2022-12-19T00:34:37;38.53;;;21.65;;
75593;SDS011;64176;49.156;7.810;2022-12-19T00:37:23;43.97;;;21.80;;
75593;SDS011;64176;49.156;7.810;2022-12-19T00:40:07;46.00;;;22.73;;
75593;SDS011;64176;49.156;7.810;2022-12-19T00:42:57;43.45;;;20.70;;
75593;SDS011;64176;49.156;7.810;2022-12-19T00:45:41;41.72;;;21.92;;
75593;SDS011;64176;49.156;7.810;2022-12-19T00:48:30;44.10;;;20.10;;
75593;SDS011;64176;49.156;7.810;2022-12-19T00:51:16;38.33;;;20.83;;
75593;SDS011;64176;49.156;7.810;2022-12-19T00:54:02;41.63;;;21.00;;
75593;SDS011;64176;49.156;7.810;2022-12-19T00:56:47;42.92;;;21.70;;
75593;SDS011;64176;49.156;7.810;2022-12-19T00:59:31;43.78;;;20.75;;
75593;SDS011;64176;49.156;7.810;2022-12-19T01:02:15;41.70;;;22.70;;
75593;SDS011;64176;49.156;7.810;2022-12-19T01:04:58;42.05;;;23.60;;
75593;SDS011;64176;49.156;7.810;2022-12-19T01:07:45;42.15;;;22.67;;
75593;SDS011;64176;49.156;7.810;2022-12-19T01:10:29;43.80;;;21.88;;
75593;SDS011;64176;49.156;7.810;2022-12-19T01:13:17;40.63;;;18.90;;
75593;SDS011;64176;49.156;7.810;2022-12-19T01:18:55;46.65;;;22.40;;
75593;SDS011;64176;49.156;7.810;2022-12-19T01:21:41;47.55;;;22.83;;
75593;SDS011;64176;49.156;7.810;2022-12-19T01:24:25;35.47;;;21.75;;
75593;SDS011;64176;49.156;7.810;2022-12-19T01:27:09;44.00;;;22.98;;
75593;SDS011;64176;49.156;7.810;2022-12-19T01:29:57;49.65;;;25.38;;
75593;SDS011;64176;49.156;7.810;2022-12-19T01:32:41;47.05;;;23.00;;
75593;SDS011;64176;49.156;7.810;2022-12-19T01:35:26;47.47;;;23.13;;
75593;SDS011;64176;49.156;7.810;2022-12-19T01:38:12;42.05;;;20.60;;
75593;SDS011;64176;49.156;7.810;2022-12-19T01:41:00;41.58;;;19.80;;
75593;SDS011;64176;49.156;7.810;2022-12-19T01:43:57;47.50;;;25.85;;
75593;SDS011;64176;49.156;7.810;2022-12-19T01:46:49;41.13;;;22.38;;
75593;SDS011;64176;49.156;7.810;2022-12-19T01:49:37;44.03;;;22.52;;
75593;SDS011;64176;49.156;7.810;2022-12-19T01:52:21;47.40;;;24.38;;
75593;SDS011;64176;49.156;7.810;2022-12-19T01:55:08;41.67;;;20.90;;
75593;SDS011;64176;49.156;7.810;2022-12-19T01:57:53;43.42;;;22.55;;
75593;SDS011;64176;49.156;7.810;2022-12-19T02:00:42;41.85;;;23.05;;
75593;SDS011;64176;49.156;7.810;2022-12-19T02:03:28;45.65;;;22.38;;
75593;SDS011;64176;49.156;7.810;2022-12-19T02:06:16;49.00;;;23.27;;
75593;SDS011;64176;49.156;7.810;2022-12-19T02:09:01;48.08;;;20.80;;
75593;SDS011;64176;49.156;7.810;2022-12-19T02:11:48;47.72;;;22.58;;
75593;SDS011;64176;49.156;7.810;2022-12-19T02:14:35;49.95;;;24.80;;
75593;SDS011;64176;49.156;7.810;2022-12-19T02:17:29;46.60;;;21.80;;
75593;SDS011;64176;49.156;7.810;2022-12-19T02:32:47;46.65;;;26.58;;
75593;SDS011;64176;49.156;7.810;2022-12-19T02:35:52;49.05;;;24.67;;
75593;SDS011;64176;49.156;7.810;2022-12-19T02:41:40;44.08;;;23.88;;
75593;SDS011;64176;49.156;7.810;2022-12-19T02:44:40;42.30;;;21.40;;
75593;SDS011;64176;49.156;7.810;2022-12-19T02:47:32;43.28;;;21.88;;
75593;SDS011;64176;49.156;7.810;2022-12-19T02:50:18;40.55;;;20.15;;
75593;SDS011;64176;49.156;7.810;2022-12-19T02:53:05;43.10;;;21.85;;
75593;SDS011;64176;49.156;7.810;2022-12-19T03:05:21;40.78;;;21.05;;
75593;SDS011;64176;49.156;7.810;2022-12-19T03:11:28;40.65;;;20.77;;
75593;SDS011;64176;49.156;7.810;2022-12-19T03:14:17;43.53;;;21.50;;
75593;SDS011;64176;49.156;7.810;2022-12-19T03:17:04;42.08;;;22.67;;
75593;SDS011;64176;49.156;7.810;2022-12-19T03:19:49;47.50;;;27.15;;
75593;SDS011;64176;49.156;7.810;2022-12-19T03:22:38;52.78;;;25.48;;
75593;SDS011;64176;49.156;7.810;2022-12-19T03:25:22;52.58;;;26.08;;
75593;SDS011;64176;49.156;7.810;2022-12-19T03:28:11;46.63;;;23.13;;
75593;SDS011;64176;49.156;7.810;2022-12-19T03:30:58;48.80;;;25.20;;
75593;SDS011;64176;49.156;7.810;2022-12-19T03:33:44;47.63;;;25.35;;
75593;SDS011;64176;49.156;7.810;2022-12-19T03:36:35;45.25;;;25.55;;
75593;SDS011;64176;49.156;7.810;2022-12-19T03:39:27;41.72;;;19.90;;
75593;SDS011;64176;49.156;7.810;2022-12-19T03:42:15;43.45;;;25.48;;
75593;SDS011;64176;49.156;7.810;2022-12-19T03:45:21;47.17;;;24.42;;
75593;SDS011;64176;49.156;7.810;2022-12-19T03:48:16;44.70;;;23.77;;
75593;SDS011;64176;49.156;7.810;2022-12-19T03:57:04;43.63;;;21.95;;
75593;SDS011;64176;49.156;7.810;2022-12-19T04:00:05;43.13;;;21.25;;
75593;SDS011;64176;49.156;7.810;2022-12-19T04:02:57;42.25;;;20.33;;
75593;SDS011;64176;49.156;7.810;2022-12-19T04:05:42;40.92;;;21.23;;
75593;SDS011;64176;49.156;7.810;2022-12-19T04:08:28;42.83;;;20.25;;
75593;SDS011;64176;49.156;7.810;2022-12-19T04:11:17;43.08;;;22.52;;
75593;SDS011;64176;49.156;7.810;2022-12-19T04:14:05;41.55;;;21.75;;
75593;SDS011;64176;49.156;7.810;2022-12-19T04:17:02;42.67;;;21.85;;
75593;SDS011;64176;49.156;7.810;2022-12-19T04:20:06;42.03;;;22.05;;
75593;SDS011;64176;49.156;7.810;2022-12-19T04:25:46;50.42;;;23.02;;
75593;SDS011;64176;49.156;7.810;2022-12-19T04:28:34;41.97;;;22.05;;
75593;SDS011;64176;49.156;7.810;2022-12-19T04:31:26;45.25;;;18.40;;
75593;SDS011;64176;49.156;7.810;2022-12-19T04:34:15;43.22;;;24.40;;
75593;SDS011;64176;49.156;7.810;2022-12-19T04:37:05;40.00;;;20.55;;
75593;SDS011;64176;49.156;7.810;2022-12-19T04:39:52;37.47;;;21.10;;
75593;SDS011;64176;49.156;7.810;2022-12-19T04:42:36;42.70;;;22.05;;
75593;SDS011;64176;49.156;7.810;2022-12-19T04:45:20;38.45;;;21.48;;
75593;SDS011;64176;49.156;7.810;2022-12-19T04:48:04;45.03;;;22.60;;
75593;SDS011;64176;49.156;7.810;2022-12-19T04:50:48;45.92;;;23.30;;
75593;SDS011;64176;49.156;7.810;2022-12-19T04:53:32;43.45;;;23.38;;
75593;SDS011;64176;49.156;7.810;2022-12-19T04:56:16;47.22;;;26.50;;
75593;SDS011;64176;49.156;7.810;2022-12-19T04:59:00;41.08;;;22.50;;
75593;SDS011;64176;49.156;7.810;2022-12-19T05:01:44;40.78;;;23.70;;
75593;SDS011;64176;49.156;7.810;2022-12-19T05:04:27;45.65;;;21.02;;
75593;SDS011;64176;49.156;7.810;2022-12-19T05:07:14;41.92;;;23.27;;
75593;SDS011;64176;49.156;7.810;2022-12-19T05:09:58;42.90;;;20.95;;
75593;SDS011;64176;49.156;7.810;2022-12-19T05:12:42;43.13;;;21.60;;
75593;SDS011;64176;49.156;7.810;2022-12-19T05:15:30;43.63;;;24.00;;
75593;SDS011;64176;49.156;7.810;2022-12-19T05:18:17;40.13;;;18.08;;
75593;SDS011;64176;49.156;7.810;2022-12-19T05:21:01;39.80;;;22.60;;
75593;SDS011;64176;49.156;7.810;2022-12-19T05:23:48;42.85;;;22.50;;
75593;SDS011;64176;49.156;7.810;2022-12-19T05:26:33;45.60;;;24.17;;
75593;SDS011;64176;49.156;7.810;2022-12-19T05:29:17;39.17;;;21.73;;
75593;SDS011;64176;49.156;7.810;2022-12-19T05:32:00;44.20;;;22.27;;
75593;SDS011;64176;49.156;7.810;2022-12-19T05:34:47;43.15;;;21.08;;
75593;SDS011;64176;49.156;7.810;2022-12-19T05:37:31;45.10;;;24.85;;
75593;SDS011;64176;49.156;7.810;2022-12-19T05:40:17;44.17;;;22.70;;
75593;SDS011;64176;49.156;7.810;2022-12-19T05:43:04;47.53;;;20.98;;
75593;SDS011;64176;49.156;7.810;2022-12-19T05:45:50;43.40;;;20.85;;
75593;SDS011;64176;49.156;7.810;2022-12-19T05:48:35;36.88;;;20.52;;
75593;SDS011;64176;49.156;7.810;2022-12-19T05:51:19;41.85;;;22.52;;
75593;SDS011;64176;49.156;7.810;2022-12-19T05:54:04;40.47;;;21.95;;
75593;SDS011;64176;49.156;7.810;2022-12-19T05:56:47;44.22;;;23.08;;
75593;SDS011;64176;49.156;7.810;2022-12-19T05:59:34;43.72;;;23.40;;
75593;SDS011;64176;49.156;7.810;2022-12-19T06:02:23;40.97;;;21.75;;
75593;SDS011;64176;49.156;7.810;2022-12-19T06:05:08;43.08;;;24.38;;
75593;SDS011;64176;49.156;7.810;2022-12-19T06:07:55;46.80;;;26.23;;
75593;SDS011;64176;49.156;7.810;2022-12-19T06:10:44;49.25;;;23.55;;
75593;SDS011;64176;49.156;7.810;2022-12-19T06:13:28;48.75;;;25.17;;
75593;SDS011;64176;49.156;7.810;2022-12-19T06:16:14;49.53;;;26.08;;
75593;SDS011;64176;49.156;7.810;2022-12-19T06:18:59;55.53;;;32.15;;
75593;SDS011;64176;49.156;7.810;2022-12-19T06:21:43;45.63;;;25.10;;
75593;SDS011;64176;49.156;7.810;2022-12-19T06:24:27;44.67;;;25.88;;
75593;SDS011;64176;49.156;7.810;2022-12-19T06:27:11;44.13;;;25.25;;
75593;SDS011;64176;49.156;7.810;2022-12-19T06:29:57;53.65;;;30.92;;
75593;SDS011;64176;49.156;7.810;2022-12-19T06:32:44;52.90;;;28.95;;
75593;SDS011;64176;49.156;7.810;2022-12-19T06:35:30;42.75;;;22.58;;
75593;SDS011;64176;49.156;7.810;2022-12-19T06:38:14;46.35;;;24.52;;
75593;SDS011;64176;49.156;7.810;2022-12-19T06:40:58;39.00;;;22.35;;
75593;SDS011;64176;49.156;7.810;2022-12-19T06:44:04;44.85;;;24.55;;
75593;SDS011;64176;49.156;7.810;2022-12-19T06:46:53;46.40;;;27.00;;
75593;SDS011;64176;49.156;7.810;2022-12-19T06:49:39;52.03;;;27.58;;
75593;SDS011;64176;49.156;7.810;2022-12-19T06:52:23;49.13;;;27.33;;
75593;SDS011;64176;49.156;7.810;2022-12-19T06:55:08;45.97;;;25.50;;
75593;SDS011;64176;49.156;7.810;2022-12-19T06:57:53;50.08;;;25.23;;
75593;SDS011;64176;49.156;7.810;2022-12-19T07:00:36;43.85;;;25.70;;
75593;SDS011;64176;49.156;7.810;2022-12-19T07:03:24;41.58;;;25.38;;
75593;SDS011;64176;49.156;7.810;2022-12-19T07:06:16;45.63;;;25.05;;
75593;SDS011;64176;49.156;7.810;2022-12-19T07:09:04;44.03;;;22.88;;
75593;SDS011;64176;49.156;7.810;2022-12-19T07:11:48;44.83;;;20.83;;
75593;SDS011;64176;49.156;7.810;2022-12-19T07:14:32;42.22;;;22.63;;
75593;SDS011;64176;49.156;7.810;2022-12-19T07:17:18;43.58;;;23.25;;
75593;SDS011;64176;49.156;7.810;2022-12-19T07:20:03;48.97;;;24.95;;
75593;SDS011;64176;49.156;7.810;2022-12-19T07:22:48;46.58;;;26.73;;
75593;SDS011;64176;49.156;7.810;2022-12-19T07:25:35;47.58;;;27.23;;
75593;SDS011;64176;49.156;7.810;2022-12-19T07:28:19;49.03;;;28.88;;
75593;SDS011;64176;49.156;7.810;2022-12-19T07:31:06;50.55;;;21.73;;
75593;SDS011;64176;49.156;7.810;2022-12-19T07:33:50;43.92;;;23.83;;
75593;SDS011;64176;49.156;7.810;2022-12-19T07:36:36;52.28;;;26.75;;
75593;SDS011;64176;49.156;7.810;2022-12-19T07:39:23;49.08;;;27.60;;
75593;SDS011;64176;49.156;7.810;2022-12-19T07:42:09;41.60;;;22.70;;
75593;SDS011;64176;49.156;7.810;2022-12-19T07:44:55;46.35;;;22.95;;
75593;SDS011;64176;49.156;7.810;2022-12-19T07:47:39;47.72;;;28.02;;
75593;SDS011;64176;49.156;7.810;2022-12-19T07:50:23;50.00;;;23.65;;
75593;SDS011;64176;49.156;7.810;2022-12-19T07:53:07;49.58;;;26.08;;
75593;SDS011;64176;49.156;7.810;2022-12-19T07:55:54;48.42;;;27.95;;
75593;SDS011;64176;49.156;7.810;2022-12-19T07:58:38;50.40;;;27.02;;
75593;SDS011;64176;49.156;7.810;2022-12-19T08:01:25;50.83;;;27.88;;
75593;SDS011;64176;49.156;7.810;2022-12-19T08:04:11;48.90;;;29.75;;
75593;SDS011;64176;49.156;7.810;2022-12-19T08:06:55;42.88;;;26.08;;
75593;SDS011;64176;49.156;7.810;2022-12-19T08:09:42;45.42;;;24.17;;
75593;SDS011;64176;49.156;7.810;2022-12-19T08:12:31;43.50;;;27.15;;
75593;SDS011;64176;49.156;7.810;2022-12-19T08:15:16;59.28;;;32.33;;
75593;SDS011;64176;49.156;7.810;2022-12-19T08:18:03;64.95;;;33.05;;
75593;SDS011;64176;49.156;7.810;2022-12-19T08:20:47;59.20;;;32.42;;
75593;SDS011;64176;49.156;7.810;2022-12-19T08:23:33;58.50;;;31.00;;
75593;SDS011;64176;49.156;7.810;2022-12-19T08:26:18;41.28;;;25.55;;
75593;SDS011;64176;49.156;7.810;2022-12-19T08:29:07;46.42;;;25.13;;
75593;SDS011;64176;49.156;7.810;2022-12-19T08:31:51;38.13;;;23.80;;
75593;SDS011;64176;49.156;7.810;2022-12-19T08:34:35;47.15;;;27.05;;
75593;SDS011;64176;49.156;7.810;2022-12-19T08:37:19;43.60;;;20.40;;
75593;SDS011;64176;49.156;7.810;2022-12-19T08:40:03;44.90;;;28.02;;
75593;SDS011;64176;49.156;7.810;2022-12-19T08:42:50;54.88;;;32.92;;
75593;SDS011;64176;49.156;7.810;2022-12-19T08:45:34;47.53;;;25.27;;
75593;SDS011;64176;49.156;7.810;2022-12-19T08:48:18;44.22;;;25.80;;
75593;SDS011;64176;49.156;7.810;2022-12-19T08:51:03;50.20;;;27.25;;
75593;SDS011;64176;49.156;7.810;2022-12-19T08:53:51;66.32;;;32.58;;
75593;SDS011;64176;49.156;7.810;2022-12-19T08:56:35;60.47;;;31.65;;
75593;SDS011;64176;49.156;7.810;2022-12-19T08:59:19;59.95;;;31.70;;
75593;SDS011;64176;49.156;7.810;2022-12-19T09:02:05;67.38;;;36.88;;
75593;SDS011;64176;49.156;7.810;2022-12-19T09:04:49;66.28;;;33.13;;
75593;SDS011;64176;49.156;7.810;2022-12-19T09:07:36;56.58;;;30.05;;
75593;SDS011;64176;49.156;7.810;2022-12-19T09:10:20;55.40;;;33.80;;
75593;SDS011;64176;49.156;7.810;2022-12-19T09:13:04;61.28;;;33.35;;
75593;SDS011;64176;49.156;7.810;2022-12-19T09:15:58;67.40;;;39.85;;
75593;SDS011;64176;49.156;7.810;2022-12-19T09:18:45;68.30;;;38.45;;
75593;SDS011;64176;49.156;7.810;2022-12-19T09:21:36;67.55;;;39.17;;
75593;SDS011;64176;49.156;7.810;2022-12-19T09:24:20;79.55;;;42.08;;
75593;SDS011;64176;49.156;7.810;2022-12-19T09:27:06;61.35;;;34.60;;
75593;SDS011;64176;49.156;7.810;2022-12-19T09:29:53;64.53;;;36.83;;
75593;SDS011;64176;49.156;7.810;2022-12-19T09:32:37;75.05;;;42.40;;
75593;SDS011;64176;49.156;7.810;2022-12-19T09:35:26;70.13;;;38.92;;
75593;SDS011;64176;49.156;7.810;2022-12-19T09:38:11;70.25;;;41.20;;
75593;SDS011;64176;49.156;7.810;2022-12-19T09:47:24;66.55;;;35.75;;
75593;SDS011;64176;49.156;7.810;2022-12-19T09:53:32;67.50;;;42.03;;
75593;SDS011;64176;49.156;7.810;2022-12-19T09:56:25;65.45;;;35.75;;
75593;SDS011;64176;49.156;7.810;2022-12-19T10:08:21;68.50;;;39.60;;
75593;SDS011;64176;49.156;7.810;2022-12-19T10:17:05;88.53;;;46.88;;
75593;SDS011;64176;49.156;7.810;2022-12-19T10:26:18;73.95;;;38.15;;
75593;SDS011;64176;49.156;7.810;2022-12-19T10:29:28;64.05;;;37.20;;
75593;SDS011;64176;49.156;7.810;2022-12-19T10:35:53;77.80;;;40.08;;
75593;SDS011;64176;49.156;7.810;2022-12-19T10:39:05;62.88;;;37.78;;
75593;SDS011;64176;49.156;7.810;2022-12-19T10:41:53;65.13;;;35.50;;
75593;SDS011;64176;49.156;7.810;2022-12-19T10:44:44;56.97;;;33.90;;
75593;SDS011;64176;49.156;7.810;2022-12-19T10:47:31;64.85;;;35.47;;
75593;SDS011;64176;49.156;7.810;2022-12-19T10:50:19;58.00;;;33.53;;
75593;SDS011;64176;49.156;7.810;2022-12-19T10:53:09;67.88;;;38.00;;
75593;SDS011;64176;49.156;7.810;2022-12-19T10:55:54;62.35;;;37.28;;
75593;SDS011;64176;49.156;7.810;2022-12-19T10:58:43;69.50;;;38.42;;
75593;SDS011;64176;49.156;7.810;2022-12-19T11:01:29;68.35;;;41.72;;
75593;SDS011;64176;49.156;7.810;2022-12-19T11:04:32;67.15;;;41.92;;
75593;SDS011;64176;49.156;7.810;2022-12-19T11:07:19;62.55;;;35.10;;
75593;SDS011;64176;49.156;7.810;2022-12-19T11:10:19;43.25;;;23.65;;
75593;SDS011;64176;49.156;7.810;2022-12-19T11:16:24;46.13;;;30.77;;
75593;SDS011;64176;49.156;7.810;2022-12-19T11:19:31;54.70;;;29.20;;
75593;SDS011;64176;49.156;7.810;2022-12-19T11:25:13;46.58;;;29.90;;
75593;SDS011;64176;49.156;7.810;2022-12-19T11:28:04;49.60;;;29.52;;
75593;SDS011;64176;49.156;7.810;2022-12-19T11:33:55;55.63;;;31.45;;
75593;SDS011;64176;49.156;7.810;2022-12-19T11:36:47;54.35;;;33.03;;
75593;SDS011;64176;49.156;7.810;2022-12-19T11:39:39;51.70;;;35.28;;
75593;SDS011;64176;49.156;7.810;2022-12-19T11:42:31;57.20;;;34.38;;
75593;SDS011;64176;49.156;7.810;2022-12-19T11:48:43;53.72;;;31.65;;
75593;SDS011;64176;49.156;7.810;2022-12-19T11:54:42;53.97;;;30.67;;
75593;SDS011;64176;49.156;7.810;2022-12-19T11:57:37;56.03;;;32.05;;
75593;SDS011;64176;49.156;7.810;2022-12-19T12:00:23;53.58;;;33.38;;
75593;SDS011;64176;49.156;7.810;2022-12-19T12:06:23;57.22;;;34.78;;
75593;SDS011;64176;49.156;7.810;2022-12-19T12:18:03;61.72;;;35.65;;
75593;SDS011;64176;49.156;7.810;2022-12-19T12:29:45;36.75;;;25.88;;
75593;SDS011;64176;49.156;7.810;2022-12-19T12:32:48;42.08;;;24.52;;
75593;SDS011;64176;49.156;7.810;2022-12-19T12:35:45;39.33;;;23.08;;
75593;SDS011;64176;49.156;7.810;2022-12-19T12:38:42;44.95;;;27.30;;
75593;SDS011;64176;49.156;7.810;2022-12-19T12:41:51;39.45;;;22.65;;
75593;SDS011;64176;49.156;7.810;2022-12-19T12:44:48;45.53;;;26.73;;
75593;SDS011;64176;49.156;7.810;2022-12-19T12:47:35;44.45;;;26.55;;
75593;SDS011;64176;49.156;7.810;2022-12-19T12:50:23;45.10;;;25.35;;
75593;SDS011;64176;49.156;7.810;2022-12-19T12:53:13;47.15;;;28.25;;
75593;SDS011;64176;49.156;7.810;2022-12-19T12:56:06;43.72;;;25.75;;
75593;SDS011;64176;49.156;7.810;2022-12-19T13:01:38;53.47;;;32.65;;
75593;SDS011;64176;49.156;7.810;2022-12-19T13:04:30;55.50;;;31.25;;
75593;SDS011;64176;49.156;7.810;2022-12-19T13:07:19;57.28;;;36.42;;
75593;SDS011;64176;49.156;7.810;2022-12-19T13:13:13;49.83;;;29.42;;
75593;SDS011;64176;49.156;7.810;2022-12-19T13:15:58;49.00;;;32.20;;
75593;SDS011;64176;49.156;7.810;2022-12-19T13:19:01;52.85;;;35.67;;
75593;SDS011;64176;49.156;7.810;2022-12-19T13:24:53;46.63;;;32.45;;
75593;SDS011;64176;49.156;7.810;2022-12-19T13:27:39;59.22;;;38.58;;
75593;SDS011;64176;49.156;7.810;2022-12-19T13:30:24;51.85;;;32.70;;
75593;SDS011;64176;49.156;7.810;2022-12-19T13:33:10;58.63;;;36.80;;
75593;SDS011;64176;49.156;7.810;2022-12-19T13:35:54;56.83;;;33.22;;
75593;SDS011;64176;49.156;7.810;2022-12-19T13:38:43;57.22;;;36.47;;
75593;SDS011;64176;49.156;7.810;2022-12-19T13:41:31;68.43;;;44.63;;
75593;SDS011;64176;49.156;7.810;2022-12-19T13:44:46;62.42;;;40.63;;
75593;SDS011;64176;49.156;7.810;2022-12-19T13:47:34;56.58;;;38.45;;
75593;SDS011;64176;49.156;7.810;2022-12-19T13:53:16;47.45;;;31.42;;
75593;SDS011;64176;49.156;7.810;2022-12-19T13:56:11;39.45;;;29.52;;
75593;SDS011;64176;49.156;7.810;2022-12-19T13:59:01;44.53;;;31.17;;
75593;SDS011;64176;49.156;7.810;2022-12-19T14:01:51;43.55;;;30.33;;
75593;SDS011;64176;49.156;7.810;2022-12-19T14:04:38;45.83;;;31.48;;
75593;SDS011;64176;49.156;7.810;2022-12-19T14:10:28;47.38;;;28.77;;
75593;SDS011;64176;49.156;7.810;2022-12-19T14:13:17;44.95;;;29.58;;
75593;SDS011;64176;49.156;7.810;2022-12-19T14:16:23;44.67;;;31.27;;
75593;SDS011;64176;49.156;7.810;2022-12-19T14:19:22;62.22;;;36.50;;
75593;SDS011;64176;49.156;7.810;2022-12-19T14:22:11;34.20;;;20.65;;
75593;SDS011;64176;49.156;7.810;2022-12-19T14:25:02;35.22;;;22.08;;
75593;SDS011;64176;49.156;7.810;2022-12-19T14:27:52;35.25;;;22.25;;
75593;SDS011;64176;49.156;7.810;2022-12-19T14:30:49;38.38;;;25.20;;
75593;SDS011;64176;49.156;7.810;2022-12-19T14:33:38;39.95;;;26.95;;
75593;SDS011;64176;49.156;7.810;2022-12-19T14:36:30;51.08;;;32.28;;
75593;SDS011;64176;49.156;7.810;2022-12-19T14:39:18;53.65;;;32.47;;
75593;SDS011;64176;49.156;7.810;2022-12-19T14:42:06;52.58;;;30.95;;
75593;SDS011;64176;49.156;7.810;2022-12-19T14:45:32;43.40;;;25.77;;
75593;SDS011;64176;49.156;7.810;2022-12-19T14:48:25;48.58;;;26.00;;
75593;SDS011;64176;49.156;7.810;2022-12-19T14:51:12;41.08;;;25.98;;
75593;SDS011;64176;49.156;7.810;2022-12-19T14:56:51;41.05;;;29.23;;
75593;SDS011;64176;49.156;7.810;2022-12-19T14:59:41;35.55;;;22.10;;
75593;SDS011;64176;49.156;7.810;2022-12-19T15:02:31;42.17;;;26.67;;
75593;SDS011;64176;49.156;7.810;2022-12-19T15:05:19;42.22;;;26.27;;
75593;SDS011;64176;49.156;7.810;2022-12-19T15:08:07;38.28;;;25.20;;
75593;SDS011;64176;49.156;7.810;2022-12-19T15:10:59;37.45;;;24.40;;
75593;SDS011;64176;49.156;7.810;2022-12-19T15:14:06;37.42;;;23.63;;
75593;SDS011;64176;49.156;7.810;2022-12-19T15:16:59;38.90;;;25.48;;
75593;SDS011;64176;49.156;7.810;2022-12-19T15:19:44;33.88;;;20.50;;
75593;SDS011;64176;49.156;7.810;2022-12-19T15:22:29;37.20;;;22.73;;
75593;SDS011;64176;49.156;7.810;2022-12-19T15:25:16;42.47;;;25.15;;
75593;SDS011;64176;49.156;7.810;2022-12-19T15:28:00;38.70;;;25.20;;
75593;SDS011;64176;49.156;7.810;2022-12-19T15:30:49;34.58;;;24.10;;
75593;SDS011;64176;49.156;7.810;2022-12-19T15:33:37;28.38;;;18.15;;
75593;SDS011;64176;49.156;7.810;2022-12-19T15:36:21;28.10;;;17.30;;
75593;SDS011;64176;49.156;7.810;2022-12-19T15:39:08;28.00;;;20.02;;
75593;SDS011;64176;49.156;7.810;2022-12-19T15:41:53;29.73;;;16.85;;
75593;SDS011;64176;49.156;7.810;2022-12-19T15:44:41;38.20;;;25.83;;
75593;SDS011;64176;49.156;7.810;2022-12-19T15:47:33;38.47;;;25.92;;
75593;SDS011;64176;49.156;7.810;2022-12-19T15:50:28;43.75;;;30.85;;
75593;SDS011;64176;49.156;7.810;2022-12-19T15:53:19;51.35;;;35.85;;
75593;SDS011;64176;49.156;7.810;2022-12-19T15:56:17;53.80;;;37.17;;
75593;SDS011;64176;49.156;7.810;2022-12-19T16:02:22;53.72;;;33.15;;
75593;SDS011;64176;49.156;7.810;2022-12-19T16:05:11;52.75;;;32.08;;
75593;SDS011;64176;49.156;7.810;2022-12-19T16:08:00;61.13;;;38.75;;
75593;SDS011;64176;49.156;7.810;2022-12-19T16:10:47;54.95;;;36.13;;
75593;SDS011;64176;49.156;7.810;2022-12-19T16:13:34;48.90;;;32.85;;
75593;SDS011;64176;49.156;7.810;2022-12-19T16:16:18;50.92;;;32.63;;
75593;SDS011;64176;49.156;7.810;2022-12-19T16:19:02;44.92;;;26.85;;
75593;SDS011;64176;49.156;7.810;2022-12-19T16:21:49;42.35;;;26.98;;
75593;SDS011;64176;49.156;7.810;2022-12-19T16:24:36;42.08;;;25.17;;
75593;SDS011;64176;49.156;7.810;2022-12-19T16:27:28;52.67;;;30.63;;
75593;SDS011;64176;49.156;7.810;2022-12-19T16:30:18;53.00;;;34.17;;
75593;SDS011;64176;49.156;7.810;2022-12-19T16:33:11;56.25;;;32.95;;
75593;SDS011;64176;49.156;7.810;2022-12-19T16:36:01;54.45;;;32.83;;
75593;SDS011;64176;49.156;7.810;2022-12-19T16:38:45;54.75;;;33.15;;
75593;SDS011;64176;49.156;7.810;2022-12-19T16:41:29;51.75;;;32.22;;
75593;SDS011;64176;49.156;7.810;2022-12-19T16:44:14;45.25;;;28.73;;
75593;SDS011;64176;49.156;7.810;2022-12-19T16:47:00;51.15;;;30.60;;
75593;SDS011;64176;49.156;7.810;2022-12-19T16:49:44;49.08;;;31.88;;
75593;SDS011;64176;49.156;7.810;2022-12-19T16:52:28;48.88;;;32.72;;
75593;SDS011;64176;49.156;7.810;2022-12-19T16:55:12;49.67;;;32.10;;
75593;SDS011;64176;49.156;7.810;2022-12-19T16:57:59;43.10;;;27.55;;
75593;SDS011;64176;49.156;7.810;2022-12-19T17:00:46;55.83;;;36.35;;
75593;SDS011;64176;49.156;7.810;2022-12-19T17:03:38;46.33;;;33.67;;
75593;SDS011;64176;49.156;7.810;2022-12-19T17:06:25;46.97;;;31.58;;
75593;SDS011;64176;49.156;7.810;2022-12-19T17:09:19;54.60;;;35.22;;
75593;SDS011;64176;49.156;7.810;2022-12-19T17:12:08;46.70;;;29.08;;
75593;SDS011;64176;49.156;7.810;2022-12-19T17:15:00;50.47;;;34.97;;
75593;SDS011;64176;49.156;7.810;2022-12-19T17:17:45;53.00;;;29.00;;
75593;SDS011;64176;49.156;7.810;2022-12-19T17:20:31;50.83;;;34.15;;
75593;SDS011;64176;49.156;7.810;2022-12-19T17:23:21;56.72;;;36.58;;
75593;SDS011;64176;49.156;7.810;2022-12-19T17:26:09;57.28;;;35.78;;
75593;SDS011;64176;49.156;7.810;2022-12-19T17:28:58;58.00;;;36.42;;
75593;SDS011;64176;49.156;7.810;2022-12-19T17:31:47;57.15;;;39.40;;
75593;SDS011;64176;49.156;7.810;2022-12-19T17:34:31;58.08;;;35.58;;
75593;SDS011;64176;49.156;7.810;2022-12-19T17:37:18;56.47;;;38.15;;
75593;SDS011;64176;49.156;7.810;2022-12-19T17:40:25;49.55;;;36.60;;
75593;SDS011;64176;49.156;7.810;2022-12-19T17:43:11;48.67;;;32.47;;
75593;SDS011;64176;49.156;7.810;2022-12-19T17:45:55;48.65;;;34.70;;
75593;SDS011;64176;49.156;7.810;2022-12-19T17:48:39;40.58;;;27.83;;
75593;SDS011;64176;49.156;7.810;2022-12-19T17:51:28;38.92;;;27.25;;
75593;SDS011;64176;49.156;7.810;2022-12-19T17:54:13;47.30;;;30.20;;
75593;SDS011;64176;49.156;7.810;2022-12-19T17:56:57;51.30;;;32.75;;
75593;SDS011;64176;49.156;7.810;2022-12-19T17:59:41;71.47;;;45.15;;
75593;SDS011;64176;49.156;7.810;2022-12-19T18:02:26;84.88;;;49.72;;
75593;SDS011;64176;49.156;7.810;2022-12-19T18:05:20;61.85;;;40.92;;
75593;SDS011;64176;49.156;7.810;2022-12-19T18:08:19;74.05;;;46.28;;
75593;SDS011;64176;49.156;7.810;2022-12-19T18:11:05;66.20;;;40.75;;
75593;SDS011;64176;49.156;7.810;2022-12-19T18:13:58;46.40;;;29.45;;
75593;SDS011;64176;49.156;7.810;2022-12-19T18:16:45;50.95;;;33.08;;
75593;SDS011;64176;49.156;7.810;2022-12-19T18:19:33;52.97;;;37.55;;
75593;SDS011;64176;49.156;7.810;2022-12-19T18:22:22;54.67;;;36.47;;
75593;SDS011;64176;49.156;7.810;2022-12-19T18:25:19;52.33;;;34.33;;
75593;SDS011;64176;49.156;7.810;2022-12-19T18:28:08;49.72;;;35.05;;
75593;SDS011;64176;49.156;7.810;2022-12-19T18:30:52;53.53;;;34.75;;
75593;SDS011;64176;49.156;7.810;2022-12-19T18:33:45;49.60;;;34.05;;
75593;SDS011;64176;49.156;7.810;2022-12-19T18:36:34;57.88;;;37.80;;